Terminal Aerodrome Forecast
Issued by NWS Corpus Christi, TX

Home | Current Version | Previous Version | Text Only | Print | Product List | Glossary On
Versions: 1 2 3 4 5 6 7 8 9 10 11 12 13
000
FTUS44 KCRP 250529
TAFCRP
TAF
KCRP 250529Z 2506/2606 15008KT P6SM FEW020 SCT250
     FM250800 17006KT P6SM SCT025 BKN250
     FM251800 13012G20KT P6SM VCSH SCT050 BKN250
     FM260100 16011KT P6SM FEW020=

USA.gov is the U.S. government's official web portal to all federal, state and local government web resources and services.